EGBJ/GLO METAR and TAF weather

Enter ICAO airport designator
Station Type Date Time Source
EGBJ METAR 2022/11/26 09:20 UTC NOAA

EGBJ 260920Z 17009KT 9999 FEW016 11/09 Q1021


Station Type Date Time Source
EGBJ Decoded METAR 2022/11/26 09:20 UTC NOAA

Staverton Private , United Kingdom (EGBJ) 51-54N 002-10W
Nov 26, 2022 - 04:20 AM EST / 2022.11.26 0920 UTC
Wind: from the S (170 degrees) at 10 MPH (9 KT):0
Visibility: greater than 7 mile(s):0
Sky conditions: mostly clear
Temperature: 51 F (11 C)
Dew Point: 48 F (9 C)
Relative Humidity: 87%
Pressure (altimeter): 30.15 in. Hg (1021 hPa)
ob: EGBJ 260920Z 17009KT 9999 FEW016 11/09 Q1021
cycle: 9

Station Type Date Time Source
EGBJ TAF UTC NOAA

Error!

Example: see airport list